createdAt,value
2023-04-18T00:04:35.389Z,10.39
2023-04-18T00:09:36.890Z,10.36
2023-04-18T00:14:38.238Z,10.31
2023-04-18T00:19:43.106Z,10.33
2023-04-18T00:24:44.467Z,10.27
2023-04-18T00:29:45.946Z,10.20
2023-04-18T00:34:47.296Z,10.18
2023-04-18T00:39:48.612Z,10.15
2023-04-18T00:44:49.957Z,10.09
2023-04-18T00:49:51.484Z,10.02
2023-04-18T00:54:53.493Z,9.95
2023-04-18T00:59:54.959Z,9.83
2023-04-18T01:04:58.605Z,9.67
2023-04-18T01:10:01.522Z,9.62
2023-04-18T01:15:04.706Z,9.60
2023-04-18T01:20:06.710Z,9.53
2023-04-18T01:25:09.092Z,9.45
2023-04-18T01:30:11.006Z,9.35
2023-04-18T01:35:12.354Z,9.26
2023-04-18T01:40:13.889Z,9.28
2023-04-18T01:45:15.988Z,9.18
2023-04-18T01:50:17.361Z,9.13
2023-04-18T01:55:18.820Z,9.05
2023-04-18T02:00:20.941Z,8.97
2023-04-18T02:05:22.357Z,8.90
2023-04-18T02:10:23.856Z,8.88
2023-04-18T02:15:25.312Z,8.82
2023-04-18T02:20:28.669Z,8.73
2023-04-18T02:25:30.486Z,8.67
2023-04-18T02:30:32.038Z,8.62
2023-04-18T02:35:33.419Z,8.64
2023-04-18T02:40:34.762Z,8.61
2023-04-18T02:45:36.193Z,8.48
2023-04-18T02:50:37.575Z,8.48
2023-04-18T02:55:38.988Z,8.43
2023-04-18T03:00:40.373Z,8.37
2023-04-18T03:05:41.757Z,8.27
2023-04-18T03:10:43.124Z,8.20
2023-04-18T03:15:44.565Z,8.18
2023-04-18T03:20:46.073Z,8.09
2023-04-18T03:25:47.458Z,8.06
2023-04-18T03:30:48.835Z,8.06
2023-04-18T03:35:50.443Z,8.10
2023-04-18T03:40:52.173Z,8.10
2023-04-18T03:45:53.566Z,8.16
2023-04-18T03:50:55.153Z,8.25
2023-04-18T03:55:56.645Z,8.30
2023-04-18T04:00:58.002Z,8.33
2023-04-18T04:05:59.460Z,8.34
2023-04-18T04:11:00.848Z,8.32
2023-04-18T04:16:02.674Z,8.39
2023-04-18T04:21:05.742Z,8.45
2023-04-18T04:26:08.142Z,8.50
2023-04-18T04:31:10.316Z,8.60
2023-04-18T04:36:16.162Z,8.71
2023-04-18T04:41:18.774Z,8.76
2023-04-18T04:46:20.691Z,8.77
2023-04-18T04:51:22.114Z,8.80
2023-04-18T04:56:24.025Z,8.85
2023-04-18T05:01:25.625Z,8.88
2023-04-18T05:06:27.453Z,9.02
2023-04-18T05:11:28.795Z,9.11
2023-04-18T05:16:30.190Z,9.22
2023-04-18T05:21:31.623Z,9.27
2023-04-18T05:26:32.993Z,9.46
2023-04-18T05:31:34.439Z,9.60
2023-04-18T05:36:36.339Z,9.61
2023-04-18T05:41:37.693Z,9.76
2023-04-18T05:46:39.320Z,9.84
2023-04-18T05:51:40.873Z,9.95
2023-04-18T05:56:42.524Z,10.08
2023-04-18T06:01:44.205Z,10.23
2023-04-18T06:06:46.064Z,10.40
2023-04-18T06:11:47.416Z,10.49
2023-04-18T06:16:49.049Z,10.64
2023-04-18T06:21:50.682Z,10.80
2023-04-18T06:26:52.072Z,10.83
2023-04-18T06:31:53.506Z,10.87
2023-04-18T06:36:55.718Z,10.95
2023-04-18T06:41:58.043Z,10.95
2023-04-18T06:46:59.473Z,10.99
2023-04-18T06:52:00.816Z,11.03
2023-04-18T06:57:03.630Z,11.12
2023-04-18T07:02:05.060Z,11.14
2023-04-18T07:07:06.542Z,11.19
2023-04-18T07:12:07.921Z,11.17
2023-04-18T07:17:09.316Z,11.32
2023-04-18T07:22:10.830Z,11.52
2023-04-18T07:27:12.244Z,11.67
2023-04-18T07:32:13.645Z,11.83
2023-04-18T07:37:16.552Z,11.96
2023-04-18T07:42:17.939Z,12.16
2023-04-18T07:47:22.273Z,12.30
2023-04-18T07:52:24.067Z,12.42
2023-04-18T07:57:25.386Z,12.52
2023-04-18T08:02:26.839Z,12.74
2023-04-18T08:07:28.268Z,13.02
2023-04-18T08:12:29.644Z,13.17
2023-04-18T08:17:31.346Z,13.32
2023-04-18T08:22:33.426Z,13.39
2023-04-18T08:27:34.830Z,13.67
2023-04-18T08:32:36.800Z,13.81
2023-04-18T08:37:39.281Z,14.12
2023-04-18T08:42:43.660Z,14.27
2023-04-18T08:47:45.120Z,14.47
2023-04-18T08:52:49.657Z,14.72
2023-04-18T08:57:54.069Z,14.90
2023-04-18T09:02:59.056Z,14.90
2023-04-18T09:08:26.426Z,14.98
2023-04-18T09:13:39.860Z,15.06
2023-04-18T09:18:44.177Z,15.32
2023-04-18T09:23:50.205Z,15.36
2023-04-18T09:28:53.977Z,15.41
2023-04-18T09:33:57.051Z,15.59
2023-04-18T09:38:58.617Z,15.79
2023-04-18T09:44:15.695Z,15.92
2023-04-18T09:49:17.874Z,16.16
2023-04-18T09:54:20.983Z,16.32
2023-04-18T09:59:36.643Z,16.49
2023-04-18T10:04:38.439Z,16.68
2023-04-18T10:09:44.474Z,16.96
2023-04-18T10:14:46.204Z,16.91
2023-04-18T10:20:05.441Z,16.99
2023-04-18T10:25:07.363Z,17.37
2023-04-18T10:30:09.349Z,17.66
2023-04-18T10:35:11.136Z,17.84
2023-04-18T10:40:12.599Z,17.69
2023-04-18T10:45:20.865Z,17.71
2023-04-18T10:50:22.988Z,17.76
2023-04-18T10:55:28.552Z,17.64
2023-04-18T11:00:31.017Z,17.99
2023-04-18T11:05:32.469Z,18.41
2023-04-18T11:10:33.821Z,18.74
2023-04-18T11:15:36.686Z,19.00
2023-04-18T11:20:45.639Z,18.98
2023-04-18T11:25:50.366Z,19.03
2023-04-18T11:30:51.736Z,19.15
2023-04-18T11:35:58.269Z,19.32
2023-04-18T11:41:02.502Z,19.30
2023-04-18T11:46:03.908Z,19.38
2023-04-18T11:51:06.655Z,19.08
2023-04-18T11:56:08.021Z,18.98
2023-04-18T12:01:35.636Z,18.94
2023-04-18T12:06:50.885Z,18.67
2023-04-18T12:12:03.081Z,18.67
2023-04-18T12:17:04.505Z,18.65
2023-04-18T12:22:09.611Z,18.72
2023-04-18T12:27:12.046Z,18.55
2023-04-18T12:32:13.436Z,18.48
2023-04-18T12:37:14.760Z,18.43
2023-04-18T12:42:16.098Z,18.60
2023-04-18T12:47:17.526Z,18.81
2023-04-18T12:52:18.989Z,19.30
2023-04-18T12:57:20.543Z,19.26
2023-04-18T13:02:22.266Z,19.13
2023-04-18T13:07:24.832Z,18.85
2023-04-18T13:12:26.457Z,18.59
2023-04-18T13:17:27.929Z,18.68
2023-04-18T13:22:30.804Z,18.63
2023-04-18T13:27:32.166Z,18.45
2023-04-18T13:32:33.757Z,18.31
2023-04-18T13:37:35.611Z,18.14
2023-04-18T13:42:38.482Z,17.99
2023-04-18T13:47:39.970Z,17.97
2023-04-18T13:52:41.334Z,17.86
2023-04-18T13:57:42.691Z,17.97
2023-04-18T14:02:44.175Z,18.14
2023-04-18T14:07:45.678Z,18.55
2023-04-18T14:12:47.019Z,18.72
2023-04-18T14:17:48.436Z,18.82
2023-04-18T14:22:53.030Z,18.79
2023-04-18T14:28:09.392Z,18.76
2023-04-18T14:33:10.981Z,18.81
2023-04-18T14:38:12.354Z,19.28
2023-04-18T14:43:13.992Z,19.54
2023-04-18T14:48:15.839Z,19.33
2023-04-18T14:53:17.222Z,19.13
2023-04-18T14:58:18.579Z,18.88
2023-04-18T15:03:20.223Z,18.77
2023-04-18T15:08:21.955Z,18.49
2023-04-18T15:13:23.365Z,18.49
2023-04-18T15:18:24.724Z,18.52
2023-04-18T15:23:26.220Z,18.58
2023-04-18T15:28:27.780Z,18.49
2023-04-18T15:33:29.217Z,18.59
2023-04-18T15:38:32.842Z,19.03
2023-04-18T15:43:34.726Z,19.24
2023-04-18T15:48:36.356Z,19.43
2023-04-18T15:53:37.701Z,19.56
2023-04-18T15:58:39.405Z,19.52
2023-04-18T16:03:40.904Z,19.81
2023-04-18T16:08:42.339Z,19.73
2023-04-18T16:13:43.664Z,19.46
2023-04-18T16:18:45.597Z,19.09
2023-04-18T16:23:46.972Z,18.81
2023-04-18T16:28:48.528Z,18.43
2023-04-18T16:33:52.388Z,18.15
2023-04-18T16:38:53.920Z,17.91
2023-04-18T16:43:55.389Z,17.67
2023-04-18T16:48:56.775Z,17.43
2023-04-18T16:53:58.091Z,17.14
2023-04-18T16:58:59.497Z,17.14
2023-04-18T17:04:02.122Z,16.90
2023-04-18T17:09:06.151Z,16.68
2023-04-18T17:14:08.626Z,16.44
2023-04-18T17:19:10.625Z,16.40
2023-04-18T17:24:11.968Z,16.31
2023-04-18T17:29:13.452Z,16.20
2023-04-18T17:34:15.010Z,16.05
2023-04-18T17:39:17.001Z,15.88
2023-04-18T17:44:18.358Z,15.72
2023-04-18T17:49:21.053Z,15.52
2023-04-18T17:54:22.402Z,15.50
2023-04-18T17:59:23.968Z,15.42
2023-04-18T18:04:26.638Z,15.36
2023-04-18T18:09:28.387Z,15.31
2023-04-18T18:14:29.782Z,15.23
2023-04-18T18:19:31.486Z,15.19
2023-04-18T18:24:32.859Z,15.13
2023-04-18T18:29:34.193Z,15.07
2023-04-18T18:34:36.073Z,15.02
2023-04-18T18:39:37.616Z,14.90
2023-04-18T18:44:39.022Z,14.83
2023-04-18T18:49:40.706Z,14.73
2023-04-18T18:54:42.080Z,14.72
2023-04-18T18:59:43.457Z,14.75
2023-04-18T19:04:44.935Z,14.65
2023-04-18T19:09:47.023Z,14.61
2023-04-18T19:14:49.635Z,14.66
2023-04-18T19:19:52.103Z,14.65
2023-04-18T19:24:53.545Z,14.66
2023-04-18T19:29:54.945Z,14.60
2023-04-18T19:34:56.304Z,14.62
2023-04-18T19:39:57.624Z,14.59
2023-04-18T19:45:00.191Z,14.52
2023-04-18T19:50:01.553Z,14.53
2023-04-18T19:55:02.932Z,14.51
2023-04-18T20:00:07.030Z,14.42
2023-04-18T20:05:09.272Z,14.39
2023-04-18T20:10:11.315Z,14.40
2023-04-18T20:15:12.715Z,14.41
2023-04-18T20:20:14.055Z,14.42
2023-04-18T20:25:15.389Z,14.42
2023-04-18T20:30:16.801Z,14.40
2023-04-18T20:35:19.779Z,14.39
2023-04-18T20:40:21.808Z,14.34
2023-04-18T20:45:24.626Z,14.35
2023-04-18T20:50:25.981Z,14.34
2023-04-18T20:55:27.743Z,14.27
2023-04-18T21:00:29.074Z,14.22
2023-04-18T21:05:31.998Z,14.22
2023-04-18T21:10:33.872Z,14.19
2023-04-18T21:15:35.757Z,14.11
2023-04-18T21:20:37.142Z,14.08
2023-04-18T21:25:38.812Z,14.02
2023-04-18T21:30:40.147Z,13.99
2023-04-18T21:35:41.471Z,13.94
2023-04-18T21:40:42.785Z,13.89
2023-04-18T21:45:46.000Z,13.91
2023-04-18T21:50:53.830Z,13.90
2023-04-18T21:55:55.198Z,13.93
2023-04-18T22:00:56.714Z,13.99
2023-04-18T22:05:58.502Z,13.97
2023-04-18T22:11:00.181Z,13.97
2023-04-18T22:16:03.022Z,13.93
2023-04-18T22:21:04.760Z,13.86
2023-04-18T22:26:06.133Z,13.77
2023-04-18T22:31:07.575Z,13.77
2023-04-18T22:36:09.084Z,13.67
2023-04-18T22:41:10.423Z,13.73
2023-04-18T22:46:11.757Z,13.69
2023-04-18T22:51:14.717Z,13.73
2023-04-18T22:56:16.263Z,13.74
2023-04-18T23:01:17.834Z,13.72
2023-04-18T23:06:19.316Z,13.77
2023-04-18T23:11:21.100Z,13.74
2023-04-18T23:16:22.940Z,13.67
2023-04-18T23:21:24.502Z,13.70
2023-04-18T23:26:26.367Z,13.67
2023-04-18T23:31:27.748Z,13.64
2023-04-18T23:36:29.640Z,13.57
2023-04-18T23:41:31.020Z,13.61
2023-04-18T23:46:34.293Z,13.59
2023-04-18T23:51:37.554Z,13.58
2023-04-18T23:56:38.941Z,13.59
